Time;durP1;ratioP1;P1;durP2;ratioP2;P2;SDS_P1;SDS_P2;PMS_P1;PMS_P2;Temp;Humidity;BMP_temperature;BMP_pressure;BME280_temperature;BME280_humidity;BME280_pressure;Samples;Min_cycle;Max_cycle;Signal;HPM_P1;HPM_P2
2021/08/07 00:01:24;;;;;;;6.30;2.92;;;17.80;56.30;;;;;;5070857;28;20474;-75
2021/08/07 00:03:49;;;;;;;3.37;2.50;;;17.90;54.00;;;;;;5071185;28;20383;-75
2021/08/07 00:06:15;;;;;;;5.70;2.20;;;18.10;50.40;;;;;;5070763;28;20387;-75
2021/08/07 00:08:41;;;;;;;3.10;2.33;;;18.10;50.00;;;;;;5071110;28;20552;-75
2021/08/07 00:11:06;;;;;;;6.70;2.40;;;18.10;49.50;;;;;;5070773;28;20466;-74
2021/08/07 00:13:32;;;;;;;3.90;2.40;;;18.10;49.60;;;;;;5070886;28;20384;-74
2021/08/07 00:15:58;;;;;;;3.75;2.70;;;18.00;50.00;;;;;;5070894;28;20752;-74
2021/08/07 00:18:23;;;;;;;4.90;2.50;;;18.00;50.60;;;;;;5070663;28;20399;-76
2021/08/07 00:20:49;;;;;;;6.40;2.80;;;18.00;50.70;;;;;;5055572;28;20388;-74
2021/08/07 00:23:15;;;;;;;2.80;2.30;;;18.00;51.30;;;;;;5073089;28;20489;-76
2021/08/07 00:25:41;;;;;;;6.68;2.30;;;17.90;51.60;;;;;;5070651;28;20375;-77
2021/08/07 00:28:06;;;;;;;3.03;2.35;;;17.90;52.40;;;;;;5052394;28;20947;-75
2021/08/07 00:30:32;;;;;;;6.73;2.40;;;17.90;53.20;;;;;;5070335;28;20388;-75
2021/08/07 00:32:58;;;;;;;6.35;2.90;;;18.00;52.20;;;;;;5070884;28;20410;-75
2021/08/07 00:35:23;;;;;;;5.45;2.40;;;17.90;52.90;;;;;;5070661;28;20478;-75
2021/08/07 00:37:49;;;;;;;4.90;2.30;;;17.90;52.90;;;;;;5070214;28;20407;-75
2021/08/07 00:40:15;;;;;;;4.20;2.67;;;17.80;53.60;;;;;;5070529;28;20383;-75
2021/08/07 00:42:41;;;;;;;4.40;2.35;;;17.80;53.70;;;;;;5070502;28;20379;-75
2021/08/07 00:45:07;;;;;;;6.07;2.78;;;17.70;54.80;;;;;;5070388;28;20388;-75
2021/08/07 00:47:33;;;;;;;4.47;2.55;;;17.80;53.40;;;;;;5070138;28;20392;-75
2021/08/07 00:49:59;;;;;;;4.20;1.90;;;17.60;53.90;;;;;;5052243;28;20398;-74
2021/08/07 00:52:25;;;;;;;5.47;2.20;;;17.50;53.50;;;;;;5070381;28;20412;-75
2021/08/07 00:54:52;;;;;;;4.15;2.35;;;17.50;53.80;;;;;;5072824;28;20462;-75
2021/08/07 00:57:18;;;;;;;5.80;2.22;;;17.40;54.40;;;;;;5073976;28;20421;-74
2021/08/07 00:59:43;;;;;;;5.90;2.30;;;17.30;55.20;;;;;;5074162;28;20409;-74
2021/08/07 01:02:16;;;;;;;3.20;2.40;;;17.20;57.20;;;;;;5056509;28;20379;-74
2021/08/07 01:04:56;;;;;;;3.22;2.42;;;17.10;58.60;;;;;;5074160;28;20938;-75
2021/08/07 01:07:49;;;;;;;4.60;2.72;;;17.00;60.00;;;;;;5074010;28;20455;-75
2021/08/07 01:10:26;;;;;;;5.13;2.70;;;17.00;61.30;;;;;;5074284;28;20387;-75
2021/08/07 01:13:09;;;;;;;2.75;2.35;;;16.90;62.10;;;;;;5074472;28;20379;-75
2021/08/07 01:15:40;;;;;;;2.67;2.30;;;16.90;62.50;;;;;;5074411;28;20437;-74
2021/08/07 01:18:10;;;;;;;4.25;2.47;;;16.90;62.70;;;;;;5073856;28;20399;-75
2021/08/07 01:20:41;;;;;;;5.20;2.50;;;16.90;63.30;;;;;;5074162;28;20387;-75
2021/08/07 01:23:30;;;;;;;5.72;2.80;;;16.90;63.30;;;;;;5074200;28;20376;-75
2021/08/07 01:26:01;;;;;;;2.38;2.17;;;17.00;62.20;;;;;;5056158;28;20843;-76
2021/08/07 01:28:32;;;;;;;4.13;2.90;;;17.00;62.30;;;;;;5073629;28;20745;-75
2021/08/07 01:30:59;;;;;;;3.67;2.40;;;16.90;63.00;;;;;;5073759;28;20395;-75
2021/08/07 01:33:28;;;;;;;4.68;2.50;;;16.90;63.30;;;;;;5074089;28;20430;-76
2021/08/07 01:35:54;;;;;;;3.67;2.20;;;16.90;64.00;;;;;;5074017;28;20379;-75
2021/08/07 01:38:20;;;;;;;3.80;2.30;;;16.90;63.10;;;;;;5073468;28;20408;-76
2021/08/07 01:40:46;;;;;;;3.50;2.10;;;16.90;63.00;;;;;;5073652;28;20550;-75
2021/08/07 01:43:12;;;;;;;2.40;2.13;;;16.80;63.40;;;;;;5073909;28;20432;-74
2021/08/07 01:45:39;;;;;;;3.53;2.10;;;16.70;64.00;;;;;;5074103;28;20914;-74
2021/08/07 01:48:27;;;;;;;3.93;2.10;;;16.60;64.50;;;;;;5055607;28;20492;-73
2021/08/07 01:51:34;;;;;;;7.13;2.30;;;16.50;64.80;;;;;;5073328;28;20391;-76
2021/08/07 01:54:01;;;;;;;2.50;2.30;;;16.50;64.90;;;;;;4972115;28;20400;-76
2021/08/07 01:56:32;;;;;;;4.75;2.70;;;16.40;65.30;;;;;;5056920;28;20436;-75
2021/08/07 01:59:19;;;;;;;4.60;2.40;;;16.30;66.20;;;;;;5073041;28;20399;-75
2021/08/07 02:01:49;;;;;;;4.88;2.50;;;16.30;65.70;;;;;;5073013;28;20884;-76
2021/08/07 02:04:16;;;;;;;2.83;2.58;;;16.30;65.70;;;;;;5073114;28;20388;-75
2021/08/07 02:06:43;;;;;;;2.90;2.60;;;16.20;65.70;;;;;;5054429;28;20380;-76
2021/08/07 02:09:10;;;;;;;4.72;2.40;;;16.10;67.40;;;;;;5054937;28;20475;-75
2021/08/07 02:11:38;;;;;;;3.55;2.60;;;16.10;68.60;;;;;;5073033;28;20517;-75
2021/08/07 02:14:05;;;;;;;8.43;3.00;;;16.00;69.30;;;;;;5072964;28;20407;-75
2021/08/07 02:16:32;;;;;;;3.42;2.50;;;16.00;69.60;;;;;;5072837;28;20911;-74
2021/08/07 02:19:00;;;;;;;3.60;2.80;;;15.90;70.40;;;;;;5072404;28;20912;-75
2021/08/07 02:21:26;;;;;;;5.80;2.80;;;15.90;71.70;;;;;;5072733;28;20380;-75
2021/08/07 02:23:52;;;;;;;4.57;2.60;;;15.90;72.80;;;;;;5072996;28;20841;-75
2021/08/07 02:26:21;;;;;;;3.67;2.80;;;15.90;73.30;;;;;;5073209;28;20378;-74
2021/08/07 02:28:47;;;;;;;4.85;2.95;;;15.90;74.20;;;;;;5072800;28;20380;-74
2021/08/07 02:31:13;;;;;;;2.73;2.43;;;15.90;74.60;;;;;;5074312;28;20395;-76
2021/08/07 02:33:39;;;;;;;5.80;3.20;;;15.90;75.00;;;;;;5075644;28;20376;-76
2021/08/07 02:36:07;;;;;;;4.78;3.13;;;15.90;75.00;;;;;;5075501;28;20872;-76
2021/08/07 02:38:34;;;;;;;3.90;3.07;;;15.90;75.50;;;;;;5074806;28;20764;-76
2021/08/07 02:41:00;;;;;;;3.15;2.85;;;15.90;74.30;;;;;;5075167;28;20380;-76
2021/08/07 02:43:26;;;;;;;3.50;2.70;;;15.90;74.30;;;;;;5075505;28;20403;-76
2021/08/07 02:45:52;;;;;;;6.65;2.83;;;15.90;74.10;;;;;;5075229;28;20414;-75
2021/08/07 02:48:20;;;;;;;3.50;3.10;;;15.80;75.00;;;;;;5074877;28;20391;-77
2021/08/07 02:50:46;;;;;;;4.90;3.03;;;15.90;76.30;;;;;;5075841;28;20379;-76
2021/08/07 02:53:14;;;;;;;5.40;3.08;;;15.90;75.50;;;;;;5076737;28;20384;-77
2021/08/07 02:55:40;;;;;;;8.25;2.88;;;15.90;74.80;;;;;;5075555;28;20379;-76
2021/08/07 02:58:07;;;;;;;3.70;3.00;;;15.90;73.80;;;;;;5057834;28;20410;-76
2021/08/07 03:00:34;;;;;;;5.03;3.10;;;16.00;72.30;;;;;;5076115;28;20423;-76
2021/08/07 03:03:00;;;;;;;3.30;3.00;;;16.00;71.10;;;;;;5075831;28;20423;-76
2021/08/07 03:05:25;;;;;;;5.90;2.80;;;16.10;71.20;;;;;;5075804;28;20753;-76
2021/08/07 03:07:51;;;;;;;5.93;3.50;;;16.10;71.60;;;;;;5074143;28;20461;-75
2021/08/07 03:10:17;;;;;;;6.90;3.22;;;16.10;71.30;;;;;;5073984;28;20386;-76
2021/08/07 03:12:44;;;;;;;3.20;2.83;;;16.10;70.00;;;;;;5074139;28;20967;-75
2021/08/07 03:15:11;;;;;;;3.60;2.73;;;16.10;69.50;;;;;;5074151;28;20392;-75
2021/08/07 03:17:38;;;;;;;4.38;3.72;;;16.00;70.20;;;;;;5072484;28;20483;-76
2021/08/07 03:20:05;;;;;;;5.75;3.90;;;16.00;70.60;;;;;;5073200;28;20470;-75
2021/08/07 03:22:31;;;;;;;4.78;3.33;;;16.00;70.10;;;;;;5073113;28;20382;-76
2021/08/07 03:24:57;;;;;;;6.75;3.60;;;16.00;70.10;;;;;;5072954;28;20376;-76
2021/08/07 03:27:23;;;;;;;7.63;3.70;;;16.00;70.40;;;;;;5073072;28;20399;-75
2021/08/07 03:29:48;;;;;;;8.33;3.37;;;16.00;70.30;;;;;;5073325;28;20440;-75
2021/08/07 03:32:14;;;;;;;3.60;3.00;;;16.00;69.30;;;;;;5072850;28;20399;-76
2021/08/07 03:34:39;;;;;;;8.95;3.28;;;16.00;69.60;;;;;;5055347;28;20426;-76
2021/08/07 03:37:05;;;;;;;4.30;3.00;;;16.00;69.80;;;;;;5073064;28;20472;-76
2021/08/07 03:39:31;;;;;;;3.30;3.00;;;16.00;69.00;;;;;;5072983;28;20387;-76
2021/08/07 03:41:56;;;;;;;8.03;3.40;;;16.10;67.90;;;;;;5054783;28;20726;-76
2021/08/07 03:44:22;;;;;;;6.67;3.30;;;16.10;68.00;;;;;;5054878;28;20440;-75
2021/08/07 03:46:47;;;;;;;5.90;3.60;;;16.10;68.00;;;;;;5072919;28;20380;-76
2021/08/07 03:49:13;;;;;;;4.90;3.20;;;16.00;68.50;;;;;;5073184;28;20437;-77
2021/08/07 03:51:38;;;;;;;8.87;3.80;;;16.00;69.00;;;;;;5073161;28;20391;-76
2021/08/07 03:54:04;;;;;;;6.20;3.83;;;15.90;69.80;;;;;;5074154;28;20384;-76
2021/08/07 03:56:29;;;;;;;6.05;4.38;;;15.90;70.10;;;;;;5073719;28;20407;-76
2021/08/07 03:58:55;;;;;;;316.38;237.05;;;16.00;69.10;;;;;;5074444;28;20477;-75
2021/08/07 04:01:21;;;;;;;31.20;22.10;;;16.00;70.60;;;;;;5074780;28;20783;-77
2021/08/07 04:03:46;;;;;;;41.77;30.47;;;16.00;69.20;;;;;;5072480;28;20391;-75
2021/08/07 04:06:12;;;;;;;15.90;10.63;;;16.00;69.30;;;;;;5072803;28;20509;-77
2021/08/07 04:08:37;;;;;;;24.88;17.23;;;16.10;68.40;;;;;;5072733;28;20379;-76
2021/08/07 04:11:03;;;;;;;15.23;9.60;;;16.10;68.00;;;;;;5072838;28;20383;-75
2021/08/07 04:13:28;;;;;;;12.90;7.57;;;16.10;68.60;;;;;;5072500;28;20398;-76
2021/08/07 04:15:54;;;;;;;31.10;19.90;;;16.00;68.50;;;;;;5072868;28;20446;-76
2021/08/07 04:18:20;;;;;;;20.67;14.52;;;16.10;68.20;;;;;;5072139;28;20403;-75
2021/08/07 04:20:45;;;;;;;14.50;8.25;;;16.10;68.20;;;;;;5072168;28;20395;-75
2021/08/07 04:23:11;;;;;;;20.58;12.32;;;16.20;66.10;;;;;;5072322;28;20411;-76
2021/08/07 04:25:37;;;;;;;17.33;12.10;;;16.20;66.90;;;;;;5072291;28;20794;-76
2021/08/07 04:28:02;;;;;;;11.40;6.40;;;16.20;65.90;;;;;;5072167;28;20419;-76
2021/08/07 04:30:28;;;;;;;9.20;7.20;;;16.20;64.70;;;;;;5072639;28;20395;-76
2021/08/07 04:32:54;;;;;;;13.90;8.13;;;16.30;64.90;;;;;;5073730;28;20390;-76
2021/08/07 04:35:20;;;;;;;11.87;5.87;;;16.30;63.80;;;;;;5072672;28;20418;-76
2021/08/07 04:37:56;;;;;;;10.98;5.80;;;16.40;62.80;;;;;;5073429;28;20896;-77
2021/08/07 04:40:22;;;;;;;7.40;5.25;;;16.40;61.80;;;;;;5073237;28;20737;-76
2021/08/07 04:42:48;;;;;;;12.07;5.30;;;16.40;62.00;;;;;;5054748;28;20904;-76
2021/08/07 04:45:15;;;;;;;12.70;6.63;;;16.40;61.40;;;;;;5072533;28;20379;-76
2021/08/07 04:47:58;;;;;;;9.40;4.60;;;16.50;61.40;;;;;;5072382;28;20384;-76
2021/08/07 04:50:26;;;;;;;6.93;4.30;;;16.60;60.00;;;;;;5072829;28;20388;-76
2021/08/07 04:52:55;;;;;;;7.30;4.60;;;16.60;59.70;;;;;;5072469;28;20868;-76
2021/08/07 04:55:21;;;;;;;7.90;4.10;;;16.60;59.20;;;;;;5072482;28;20877;-76
2021/08/07 04:57:47;;;;;;;7.72;3.60;;;16.70;59.00;;;;;;5071988;28;20399;-76
2021/08/07 05:00:12;;;;;;;12.30;7.07;;;16.70;58.90;;;;;;5072017;28;20382;-76
2021/08/07 05:02:38;;;;;;;10.50;5.80;;;16.70;58.70;;;;;;5072083;28;20371;-75
2021/08/07 05:05:05;;;;;;;6.57;3.60;;;16.70;58.30;;;;;;5071690;28;20480;-76
2021/08/07 05:07:31;;;;;;;7.25;3.45;;;16.80;58.20;;;;;;5071936;28;20433;-75
2021/08/07 05:10:00;;;;;;;18.07;9.80;;;16.80;57.30;;;;;;5073632;28;20474;-76
2021/08/07 05:12:27;;;;;;;5.20;3.80;;;16.90;56.90;;;;;;5076576;28;20387;-77
2021/08/07 05:14:54;;;;;;;7.65;3.35;;;16.90;56.10;;;;;;5073472;28;20447;-76
2021/08/07 05:17:20;;;;;;;14.52;5.82;;;16.90;56.40;;;;;;5074842;28;20414;-77
2021/08/07 05:19:46;;;;;;;15.40;9.30;;;16.90;56.20;;;;;;5075188;28;20384;-77
2021/08/07 05:22:11;;;;;;;9.63;3.40;;;16.90;56.10;;;;;;5057048;28;20387;-77
2021/08/07 05:24:37;;;;;;;7.47;3.45;;;17.00;56.60;;;;;;5074580;28;20869;-75
2021/08/07 05:27:03;;;;;;;5.20;3.40;;;16.90;55.70;;;;;;5072251;28;20376;-76
2021/08/07 05:29:28;;;;;;;4.57;3.40;;;17.00;55.50;;;;;;5072086;28;20466;-76
2021/08/07 05:31:54;;;;;;;4.83;3.20;;;17.00;55.10;;;;;;5071295;28;20810;-76
2021/08/07 05:34:20;;;;;;;6.63;3.50;;;17.00;55.20;;;;;;5071264;28;20493;-76
2021/08/07 05:36:45;;;;;;;6.25;3.30;;;17.00;54.70;;;;;;5071823;28;20471;-76
2021/08/07 05:39:11;;;;;;;10.32;3.22;;;17.10;54.70;;;;;;5074108;28;20428;-76
2021/08/07 05:41:36;;;;;;;6.50;3.30;;;17.20;54.00;;;;;;5075273;28;20391;-76
2021/08/07 05:44:02;;;;;;;3.90;3.30;;;17.20;54.30;;;;;;5075665;28;20380;-75
2021/08/07 05:46:28;;;;;;;7.60;2.92;;;17.20;54.80;;;;;;5075639;28;20398;-76
2021/08/07 05:48:55;;;;;;;7.45;3.38;;;17.20;55.30;;;;;;5076824;28;20399;-75
2021/08/07 05:51:21;;;;;;;9.52;3.10;;;17.20;55.40;;;;;;5076281;28;20498;-76
2021/08/07 05:53:47;;;;;;;6.00;3.40;;;17.20;55.10;;;;;;5057417;28;20412;-76
2021/08/07 05:56:13;;;;;;;5.70;3.20;;;17.30;55.00;;;;;;5074294;28;20384;-76
2021/08/07 05:58:38;;;;;;;4.70;3.30;;;17.30;53.90;;;;;;5074264;28;20481;-75
2021/08/07 06:01:05;;;;;;;5.77;3.63;;;17.30;54.00;;;;;;5075251;28;20418;-77
2021/08/07 06:03:31;;;;;;;6.80;3.70;;;17.50;53.70;;;;;;5075882;28;20620;-76
2021/08/07 06:05:57;;;;;;;6.00;3.20;;;17.50;53.50;;;;;;5058334;28;20380;-76
2021/08/07 06:08:23;;;;;;;5.20;2.70;;;17.50;53.30;;;;;;5076037;28;20379;-76
2021/08/07 06:10:49;;;;;;;7.20;3.70;;;17.60;53.40;;;;;;5058592;28;20821;-76
2021/08/07 06:13:14;;;;;;;6.88;3.45;;;17.60;52.60;;;;;;5059230;28;20391;-76
2021/08/07 06:15:40;;;;;;;6.53;3.70;;;17.70;52.70;;;;;;5078724;28;20384;-76
2021/08/07 06:18:06;;;;;;;6.30;3.03;;;17.80;51.00;;;;;;5075217;28;20408;-76
2021/08/07 06:20:31;;;;;;;4.90;2.70;;;17.90;50.10;;;;;;5075779;28;20422;-76
2021/08/07 06:22:57;;;;;;;6.22;3.10;;;18.10;48.90;;;;;;5076287;28;20395;-76
2021/08/07 06:25:23;;;;;;;7.72;3.10;;;18.20;48.20;;;;;;5057924;28;20384;-76
2021/08/07 06:27:53;;;;;;;4.60;3.00;;;18.20;48.00;;;;;;5075277;28;20388;-76
2021/08/07 06:30:23;;;;;;;7.50;3.03;;;18.30;47.90;;;;;;5075765;28;20407;-77
2021/08/07 06:32:49;;;;;;;3.35;2.90;;;18.30;47.40;;;;;;5057522;28;20394;-76
2021/08/07 06:35:14;;;;;;;5.30;2.90;;;18.30;47.10;;;;;;5074586;28;20924;-76
2021/08/07 06:37:40;;;;;;;6.88;3.00;;;18.40;47.30;;;;;;5073252;28;20400;-76
2021/08/07 06:40:07;;;;;;;6.32;2.90;;;18.50;46.40;;;;;;5073300;28;20390;-77
2021/08/07 06:42:32;;;;;;;5.20;2.93;;;18.60;45.80;;;;;;5073412;28;20376;-76
2021/08/07 06:44:58;;;;;;;4.97;2.70;;;18.80;44.60;;;;;;5073318;28;20734;-75
2021/08/07 06:47:23;;;;;;;5.97;2.80;;;18.90;43.90;;;;;;5072649;28;20424;-76
2021/08/07 06:49:49;;;;;;;6.82;2.90;;;19.00;44.00;;;;;;5073532;28;20471;-76
2021/08/07 06:52:15;;;;;;;6.90;3.67;;;19.00;43.50;;;;;;5072835;28;20831;-75
2021/08/07 06:54:40;;;;;;;6.03;3.13;;;19.10;43.40;;;;;;5073387;28;20792;-75
2021/08/07 06:57:06;;;;;;;6.05;2.72;;;19.20;43.20;;;;;;5072984;28;20396;-76
2021/08/07 06:59:31;;;;;;;7.13;3.10;;;19.10;43.30;;;;;;5073159;28;20880;-75
2021/08/07 07:01:57;;;;;;;7.40;3.60;;;19.10;43.50;;;;;;5055036;28;20851;-75
2021/08/07 07:04:23;;;;;;;9.48;3.50;;;18.90;43.80;;;;;;5072800;28;20853;-75
2021/08/07 07:06:48;;;;;;;5.05;3.17;;;18.80;44.20;;;;;;5073400;28;20372;-77
2021/08/07 07:09:14;;;;;;;9.67;2.90;;;18.90;44.50;;;;;;5072575;28;20864;-76
2021/08/07 07:11:40;;;;;;;10.90;2.90;;;19.10;42.50;;;;;;5072765;28;20912;-76
2021/08/07 07:14:06;;;;;;;5.53;2.63;;;19.40;40.00;;;;;;5072690;28;20433;-77
2021/08/07 07:16:32;;;;;;;9.27;3.00;;;19.70;39.20;;;;;;5054978;28;20384;-76
2021/08/07 07:18:58;;;;;;;6.10;3.20;;;20.00;37.70;;;;;;5072438;28;20407;-76
2021/08/07 07:21:24;;;;;;;6.22;3.10;;;20.20;36.80;;;;;;5072369;28;20476;-76
2021/08/07 07:23:50;;;;;;;4.47;2.70;;;20.40;36.30;;;;;;5072729;28;20435;-76
2021/08/07 07:26:15;;;;;;;6.20;3.20;;;20.50;35.60;;;;;;5072291;28;20384;-76
2021/08/07 07:28:41;;;;;;;5.60;2.40;;;20.50;35.40;;;;;;5072349;28;20400;-75
2021/08/07 07:31:07;;;;;;;4.93;2.55;;;20.40;34.70;;;;;;5072450;28;20470;-76
2021/08/07 07:33:32;;;;;;;4.32;2.50;;;20.20;35.00;;;;;;5073424;28;20380;-76
2021/08/07 07:35:58;;;;;;;7.93;2.80;;;20.10;35.30;;;;;;5056776;28;20445;-76
2021/08/07 07:38:25;;;;;;;7.93;2.85;;;20.10;35.00;;;;;;5073366;28;20475;-76
2021/08/07 07:40:52;;;;;;;6.35;3.10;;;20.10;35.70;;;;;;5075802;28;20411;-75
2021/08/07 07:43:20;;;;;;;11.37;2.30;;;20.20;35.40;;;;;;5077755;28;20380;-75
2021/08/07 07:45:46;;;;;;;3.78;2.30;;;20.30;35.40;;;;;;5077673;28;20384;-77
2021/08/07 07:48:12;;;;;;;5.63;3.00;;;20.60;34.80;;;;;;5074442;28;20935;-76
2021/08/07 07:50:38;;;;;;;4.37;2.57;;;20.80;33.70;;;;;;5072131;28;20503;-77
2021/08/07 07:53:05;;;;;;;6.72;2.42;;;21.00;33.00;;;;;;5072922;28;20384;-77
2021/08/07 07:55:30;;;;;;;7.35;2.55;;;21.20;32.40;;;;;;5075180;28;20414;-76
2021/08/07 07:57:58;;;;;;;6.07;2.80;;;21.20;32.00;;;;;;5076264;28;20404;-77
2021/08/07 08:00:23;;;;;;;7.97;2.80;;;21.40;31.60;;;;;;5074343;28;20403;-76
2021/08/07 08:02:49;;;;;;;4.85;2.60;;;21.50;30.90;;;;;;5074148;28;20379;-76
2021/08/07 08:05:14;;;;;;;7.20;2.50;;;21.50;30.40;;;;;;5073826;28;20468;-77
2021/08/07 08:07:42;;;;;;;7.35;2.35;;;21.50;30.70;;;;;;5073763;28;20390;-76
2021/08/07 08:10:08;;;;;;;4.15;2.25;;;21.60;30.70;;;;;;5074084;28;20422;-75
2021/08/07 08:12:34;;;;;;;5.20;2.50;;;21.70;30.40;;;;;;5072997;28;20379;-75
2021/08/07 08:15:01;;;;;;;7.07;2.60;;;22.00;29.70;;;;;;5072252;28;20867;-77
2021/08/07 08:17:26;;;;;;;5.23;2.50;;;22.10;28.40;;;;;;5074590;28;20407;-77
2021/08/07 08:19:52;;;;;;;6.87;2.60;;;22.20;28.30;;;;;;5076199;28;20453;-76
2021/08/07 08:22:17;;;;;;;6.43;3.00;;;22.30;27.80;;;;;;5073902;28;20423;-77
2021/08/07 08:24:43;;;;;;;6.50;3.10;;;22.40;27.70;;;;;;5073104;28;20395;-77
2021/08/07 08:27:09;;;;;;;11.38;3.10;;;22.60;27.20;;;;;;5073148;28;20464;-76
2021/08/07 08:29:34;;;;;;;6.10;2.77;;;22.80;25.50;;;;;;5073697;28;20375;-77
2021/08/07 08:32:00;;;;;;;6.55;3.13;;;22.90;26.10;;;;;;5070762;22;20430;-72
2021/08/07 08:34:25;;;;;;;6.93;2.80;;;23.00;25.50;;;;;;5032334;28;20377;-73
2021/08/07 08:36:51;;;;;;;7.22;2.70;;;22.90;25.70;;;;;;5049784;28;20374;-72
2021/08/07 08:39:16;;;;;;;9.47;2.83;;;23.00;26.00;;;;;;5049600;28;20471;-72
2021/08/07 08:41:42;;;;;;;5.10;2.40;;;23.00;25.90;;;;;;5049982;28;20385;-72
2021/08/07 08:44:08;;;;;;;5.47;2.45;;;23.00;25.60;;;;;;5049764;28;20472;-72
2021/08/07 08:46:35;;;;;;;6.33;2.60;;;23.20;23.40;;;;;;5049703;28;20397;-71
2021/08/07 08:49:02;;;;;;;6.85;2.15;;;23.20;23.60;;;;;;5031768;28;20739;-73
2021/08/07 08:51:31;;;;;;;6.18;2.10;;;23.20;24.00;;;;;;5049991;28;20389;-72
2021/08/07 08:53:57;;;;;;;6.75;2.70;;;23.10;23.40;;;;;;5050055;28;20426;-72
2021/08/07 08:56:23;;;;;;;5.57;2.60;;;23.20;23.30;;;;;;5050014;28;20972;-73
2021/08/07 08:58:49;;;;;;;6.50;2.43;;;23.10;23.30;;;;;;5049982;28;20407;-73
2021/08/07 09:01:16;;;;;;;5.93;2.70;;;23.20;23.00;;;;;;5049755;28;20866;-73
2021/08/07 09:03:43;;;;;;;7.57;2.90;;;23.50;23.10;;;;;;5031983;28;20385;-73
2021/08/07 09:06:11;;;;;;;7.18;2.90;;;23.60;22.00;;;;;;5049824;28;20381;-73
2021/08/07 09:08:37;;;;;;;7.72;2.60;;;23.70;21.80;;;;;;5049559;28;20753;-72
2021/08/07 09:11:21;;;;;;;6.73;2.50;;;23.80;21.70;;;;;;5031642;28;20389;-73
2021/08/07 09:13:47;;;;;;;5.22;2.50;;;23.90;22.10;;;;;;5049600;28;20420;-71
2021/08/07 09:16:14;;;;;;;8.55;2.75;;;23.80;22.00;;;;;;5050860;28;20469;-72
2021/08/07 09:18:40;;;;;;;4.55;2.67;;;23.70;22.40;;;;;;5053244;28;20474;-72
2021/08/07 09:21:17;;;;;;;9.55;2.72;;;23.70;22.70;;;;;;5053208;28;20756;-72
2021/08/07 09:23:44;;;;;;;5.28;2.03;;;23.90;22.20;;;;;;5053239;28;20484;-72
2021/08/07 09:26:14;;;;;;;5.70;2.53;;;24.00;21.40;;;;;;5053250;28;20845;-73
2021/08/07 09:28:56;;;;;;;9.07;3.00;;;24.10;20.70;;;;;;5052698;28;20385;-72
2021/08/07 09:31:23;;;;;;;8.30;3.10;;;24.20;19.90;;;;;;5052690;28;20408;-72
2021/08/07 09:34:19;;;;;;;6.65;2.45;;;24.50;19.90;;;;;;5053199;28;20385;-72
2021/08/07 09:36:49;;;;;;;8.82;2.70;;;24.60;19.30;;;;;;5053062;28;20920;-72
2021/08/07 09:39:16;;;;;;;4.78;3.10;;;24.80;20.10;;;;;;5052785;28;20413;-72
2021/08/07 09:41:58;;;;;;;5.82;3.25;;;24.90;19.30;;;;;;5052991;28;20392;-73
2021/08/07 09:44:24;;;;;;;8.10;3.20;;;24.90;19.70;;;;;;5053010;28;20390;-73
2021/08/07 09:46:49;;;;;;;6.95;2.80;;;25.00;18.90;;;;;;5053144;28;20385;-72
2021/08/07 09:49:16;;;;;;;5.97;2.70;;;25.00;18.90;;;;;;5052482;28;20746;-72
2021/08/07 09:51:41;;;;;;;6.20;2.40;;;25.30;18.60;;;;;;5052681;28;20466;-73
2021/08/07 09:54:15;;;;;;;7.53;2.53;;;25.10;18.70;;;;;;5052730;28;20833;-72
2021/08/07 09:56:49;;;;;;;5.88;2.78;;;25.00;19.00;;;;;;5052601;28;20889;-72
2021/08/07 09:59:17;;;;;;;6.28;2.60;;;24.90;19.40;;;;;;5052194;28;20590;-71
2021/08/07 10:01:43;;;;;;;9.40;2.75;;;25.00;18.80;;;;;;5052604;28;20385;-71
2021/08/07 10:04:12;;;;;;;4.55;2.22;;;24.80;18.80;;;;;;5052857;28;20373;-73
2021/08/07 10:06:40;;;;;;;5.45;2.60;;;24.70;19.00;;;;;;5053191;28;20818;-73
2021/08/07 10:09:06;;;;;;;7.85;2.40;;;24.80;19.50;;;;;;5034826;28;20436;-71
2021/08/07 10:11:33;;;;;;;5.65;2.42;;;24.90;16.80;;;;;;5052724;28;20482;-72
2021/08/07 10:13:59;;;;;;;6.30;1.90;;;25.10;16.00;;;;;;5052594;28;20389;-73
2021/08/07 10:16:25;;;;;;;6.25;2.38;;;25.50;14.80;;;;;;5052528;28;20881;-72
2021/08/07 10:18:52;;;;;;;6.20;2.30;;;25.50;14.30;;;;;;5052270;28;20401;-72
2021/08/07 10:21:19;;;;;;;6.78;2.15;;;25.60;14.00;;;;;;5051852;28;20788;-71
2021/08/07 10:23:46;;;;;;;4.45;2.00;;;25.40;14.70;;;;;;5052168;28;20382;-74
2021/08/07 10:26:16;;;;;;;3.97;2.03;;;25.20;14.70;;;;;;5051959;28;20385;-72
2021/08/07 10:28:46;;;;;;;4.32;2.10;;;24.70;16.10;;;;;;5051892;28;20381;-72
2021/08/07 10:31:19;;;;;;;6.88;2.40;;;24.20;17.30;;;;;;5052018;28;20408;-72
2021/08/07 10:33:46;;;;;;;5.75;2.20;;;24.10;18.40;;;;;;5051980;28;20386;-73
2021/08/07 10:36:13;;;;;;;3.88;2.50;;;24.00;17.80;;;;;;5051922;28;20389;-72
2021/08/07 10:38:40;;;;;;;5.82;2.25;;;24.00;17.20;;;;;;5051583;28;20401;-72
2021/08/07 10:41:07;;;;;;;7.80;1.80;;;24.40;16.80;;;;;;5051932;28;20450;-72
2021/08/07 10:43:36;;;;;;;3.80;1.75;;;25.00;16.30;;;;;;5051625;28;20385;-72
2021/08/07 10:46:04;;;;;;;4.93;1.90;;;25.10;15.50;;;;;;5051807;28;20464;-73
2021/08/07 10:48:47;;;;;;;3.80;2.20;;;25.30;15.80;;;;;;5051133;28;20449;-73
2021/08/07 10:51:18;;;;;;;4.27;2.27;;;25.20;15.20;;;;;;5051618;28;20401;-72
2021/08/07 10:53:46;;;;;;;4.05;2.15;;;25.00;14.80;;;;;;5051721;28;20393;-73
2021/08/07 10:56:31;;;;;;;5.75;2.60;;;25.10;15.40;;;;;;5051341;28;20382;-73
2021/08/07 10:59:19;;;;;;;6.43;2.30;;;25.40;14.90;;;;;;5052254;28;20402;-73
2021/08/07 11:01:47;;;;;;;4.80;2.20;;;25.70;13.70;;;;;;5051278;28;20808;-72
2021/08/07 11:04:23;;;;;;;4.00;1.70;;;25.80;13.00;;;;;;5033065;28;20386;-72
2021/08/07 11:06:53;;;;;;;4.32;1.63;;;25.80;12.00;;;;;;5051270;28;20684;-70
2021/08/07 11:09:34;;;;;;;6.88;2.28;;;26.00;12.60;;;;;;5051350;28;20442;-72
2021/08/07 11:12:06;;;;;;;4.05;1.60;;;26.00;12.60;;;;;;5051059;28;20389;-73
2021/08/07 11:14:34;;;;;;;4.80;2.10;;;25.80;12.80;;;;;;5051228;28;20417;-72
2021/08/07 11:17:05;;;;;;;7.97;1.90;;;25.60;13.40;;;;;;5050990;28;20396;-73
2021/08/07 11:19:48;;;;;;;5.38;2.55;;;25.50;13.00;;;;;;5051025;28;20385;-72
2021/08/07 11:22:18;;;;;;;4.57;2.20;;;25.50;13.80;;;;;;5050879;28;20866;-71
2021/08/07 11:24:44;;;;;;;4.13;2.10;;;25.50;13.60;;;;;;5051031;28;20743;-71
2021/08/07 11:27:10;;;;;;;6.30;2.00;;;25.40;14.00;;;;;;5050913;28;20381;-73
2021/08/07 11:30:18;;;;;;;6.70;2.30;;;25.20;14.40;;;;;;5050492;28;20386;-73
2021/08/07 11:33:06;;;;;;;3.63;2.00;;;25.30;13.50;;;;;;5043132;28;20408;-72
2021/08/07 11:35:32;;;;;;;7.03;2.05;;;25.40;13.20;;;;;;5051215;28;20838;-72
2021/08/07 11:38:49;;;;;;;6.90;1.70;;;25.80;12.30;;;;;;5051564;28;20504;-73
2021/08/07 11:40:59;;;;;;;5.35;2.20;;;26.10;11.80;;;;;;5045164;28;20793;-73
2021/08/07 11:43:34;;;;;;;3.80;1.83;;;26.20;11.70;;;;;;5049358;28;20393;-73
2021/08/07 11:46:00;;;;;;;6.03;1.83;;;26.50;11.30;;;;;;5050255;28;20380;-73
2021/08/07 11:48:30;;;;;;;4.60;2.00;;;26.80;10.10;;;;;;5050255;28;20754;-73
2021/08/07 11:50:58;;;;;;;5.87;2.20;;;26.80;10.40;;;;;;5050423;28;20702;-73
2021/08/07 11:53:25;;;;;;;3.63;1.58;;;26.80;9.90;;;;;;5049114;28;21069;-73
2021/08/07 11:55:57;;;;;;;8.07;2.10;;;27.00;10.40;;;;;;5050493;28;20408;-73
2021/08/07 11:58:23;;;;;;;6.80;2.22;;;27.10;9.70;;;;;;5049916;28;20416;-72
2021/08/07 12:00:48;;;;;;;3.33;1.90;;;27.00;9.70;;;;;;5050197;28;20389;-72
2021/08/07 12:03:14;;;;;;;3.13;1.83;;;27.20;9.50;;;;;;5049252;28;20831;-72
2021/08/07 12:05:54;;;;;;;2.42;1.73;;;27.20;9.40;;;;;;5049889;28;20381;-72
2021/08/07 12:08:20;;;;;;;4.50;1.70;;;27.30;9.80;;;;;;5049812;28;20447;-72
2021/08/07 12:10:58;;;;;;;3.72;2.00;;;27.10;9.90;;;;;;5050097;28;20392;-72
2021/08/07 12:13:27;;;;;;;6.57;1.90;;;27.00;10.70;;;;;;5049901;28;20390;-72
2021/08/07 12:16:01;;;;;;;3.22;1.60;;;27.00;9.40;;;;;;5049982;28;20451;-72
2021/08/07 12:19:04;;;;;;;4.03;1.95;;;26.80;8.50;;;;;;5049717;28;20413;-72
2021/08/07 12:21:39;;;;;;;9.07;1.88;;;26.40;9.90;;;;;;5049268;28;20727;-72
2021/08/07 12:24:20;;;;;;;6.22;2.17;;;26.10;10.30;;;;;;5049958;28;20385;-73
2021/08/07 12:26:48;;;;;;;4.65;1.50;;;25.90;11.40;;;;;;5050630;28;20464;-73
2021/08/07 12:29:20;;;;;;;3.40;1.80;;;26.00;11.80;;;;;;5049798;28;20393;-73
2021/08/07 12:31:52;;;;;;;2.55;1.40;;;25.90;9.10;;;;;;5049647;28;20393;-73
2021/08/07 12:34:26;;;;;;;5.97;1.80;;;25.60;9.60;;;;;;5049746;28;20516;-72
2021/08/07 12:37:20;;;;;;;4.97;2.30;;;25.60;11.20;;;;;;5050385;28;20948;-74
2021/08/07 12:39:52;;;;;;;3.35;1.70;;;25.70;10.80;;;;;;5050507;28;20393;-73
2021/08/07 12:42:27;;;;;;;4.67;1.67;;;26.00;11.20;;;;;;5050754;28;20746;-72
2021/08/07 12:45:02;;;;;;;3.45;1.50;;;25.80;10.90;;;;;;5050479;28;20378;-73
2021/08/07 12:47:29;;;;;;;6.30;1.80;;;25.70;11.40;;;;;;5050133;28;20506;-73
2021/08/07 12:49:55;;;;;;;3.63;1.60;;;25.50;11.40;;;;;;5051949;28;20378;-73
2021/08/07 12:52:20;;;;;;;6.68;2.20;;;25.30;11.60;;;;;;5054814;28;20704;-73